createdAt,value
2022-10-28T00:01:17.651Z,64.03612724414545
2022-10-28T00:04:16.222Z,63.63834983507602
2022-10-28T00:07:16.139Z,63.5179841157456
2022-10-28T00:11:18.146Z,63.35325745596325
2022-10-28T00:14:16.478Z,63.217664106692006
2022-10-28T00:17:16.250Z,62.888483765892595
2022-10-28T00:21:18.673Z,62.666087429531544
2022-10-28T00:24:16.796Z,62.66495725762725
2022-10-28T00:27:17.279Z,62.8684655549018
2022-10-28T00:31:19.315Z,62.89810918988783
2022-10-28T00:34:18.955Z,63.32171651787893
2022-10-28T00:37:18.289Z,62.65471057871856
2022-10-28T00:41:19.999Z,62.720986465372306
2022-10-28T00:44:55.343Z,63.0222698528137
2022-10-28T00:47:27.512Z,62.936950828882594
2022-10-28T00:51:22.015Z,63.00046457397276
2022-10-28T00:54:17.921Z,63.25645262211151
2022-10-28T00:57:23.463Z,63.45597555936966
2022-10-28T01:01:15.828Z,63.49472103371817
2022-10-28T01:04:16.449Z,63.21179653021499
2022-10-28T01:07:16.811Z,63.57169460822993
2022-10-28T01:11:45.210Z,63.221162857897056
2022-10-28T01:14:24.307Z,63.869769926077296
2022-10-28T01:17:29.796Z,63.90983248035028
2022-10-28T01:21:42.612Z,63.503865077557634
2022-10-28T01:24:35.032Z,63.37922512933315
2022-10-28T01:31:27.880Z,63.73689320599686
2022-10-28T01:34:27.330Z,63.47958016726671
2022-10-28T01:37:26.858Z,62.99339565566898
2022-10-28T01:41:26.275Z,63.26003466874082
2022-10-28T01:44:25.538Z,63.415850957464144
2022-10-28T01:47:21.502Z,63.351677784476216
2022-10-28T01:51:22.244Z,63.25838144926067
2022-10-28T01:54:21.225Z,63.52667265843422
2022-10-28T01:57:18.045Z,62.87216697636875
2022-10-28T02:01:18.240Z,62.867606576180364
2022-10-28T02:04:17.131Z,63.285601979471785
2022-10-28T02:07:16.838Z,63.477383923079586
2022-10-28T02:11:30.025Z,62.98141650624144
2022-10-28T02:14:29.457Z,63.66443158762274
2022-10-28T02:17:25.437Z,63.78428591181741
2022-10-28T02:21:28.498Z,64.24991296477295
2022-10-28T02:24:21.707Z,64.66493327708186
2022-10-28T02:27:24.767Z,64.5391151467938
2022-10-28T02:31:23.460Z,64.41600658844075
2022-10-28T02:34:20.767Z,64.0593071056993
2022-10-28T02:37:22.951Z,63.99856491182206
2022-10-28T02:41:21.030Z,63.70799667668618
2022-10-28T02:44:19.554Z,64.05999019566019
2022-10-28T02:47:20.774Z,64.44795797418398
2022-10-28T02:51:20.874Z,64.35284956843051
2022-10-28T02:54:20.454Z,64.16092412406728
2022-10-28T02:57:22.015Z,64.68347887056137
2022-10-28T03:01:17.207Z,65.23985339486586
2022-10-28T03:04:17.499Z,65.40639236324576
2022-10-28T03:07:17.880Z,65.67854531488659
2022-10-28T03:11:15.682Z,65.27323028453168
2022-10-28T03:14:16.438Z,65.69067633618455
2022-10-28T03:17:16.408Z,65.94401857425217
2022-10-28T03:21:16.128Z,65.9203635407645
2022-10-28T03:24:16.614Z,66.53035291771387
2022-10-28T03:27:18.096Z,66.46175865944579
2022-10-28T03:31:17.478Z,66.78070071670797
2022-10-28T03:34:16.674Z,66.815137631357
2022-10-28T03:37:16.970Z,67.10185945654399
2022-10-28T03:41:15.768Z,66.2397306288021
2022-10-28T03:44:16.941Z,66.66497752082277
2022-10-28T03:47:16.046Z,66.74745394615996
2022-10-28T03:51:17.131Z,66.84538925589864
2022-10-28T03:54:17.308Z,66.84361046902686
2022-10-28T03:57:16.622Z,66.71891408433792
2022-10-28T04:01:15.798Z,66.60768621803803
2022-10-28T04:04:16.533Z,67.26673317267553
2022-10-28T04:07:15.851Z,67.25458344196979
2022-10-28T04:11:16.208Z,67.00478082932555
2022-10-28T04:14:16.181Z,67.56700983874127
2022-10-28T04:17:16.688Z,67.34257328162299
2022-10-28T04:21:16.088Z,67.02460682193461
2022-10-28T04:24:16.239Z,67.29550709176738
2022-10-28T04:27:16.210Z,67.40778111110069
2022-10-28T04:31:17.556Z,67.21327333099806
2022-10-28T04:34:17.793Z,67.42055235072205
2022-10-28T04:37:20.550Z,67.62487083596005
2022-10-28T04:41:16.588Z,67.52748719495798
2022-10-28T04:44:17.369Z,67.7098481139978
2022-10-28T04:47:17.196Z,67.90989981018794
2022-10-28T04:51:15.531Z,67.66143464060123
2022-10-28T04:54:16.947Z,67.8703900598777
2022-10-28T04:57:15.998Z,67.94004887319
2022-10-28T05:01:16.499Z,68.09029505172506
2022-10-28T05:04:17.015Z,68.40960240679885
2022-10-28T05:07:18.761Z,68.62234383616938
2022-10-28T05:11:15.894Z,68.70651204094159
2022-10-28T05:14:16.424Z,69.02540614849734
2022-10-28T05:17:16.252Z,69.41015508905083
2022-10-28T05:21:16.319Z,68.69497460490564
2022-10-28T05:24:16.500Z,69.26929648372364
2022-10-28T05:27:16.516Z,69.39004564438673
2022-10-28T05:31:16.106Z,69.22240408748476
2022-10-28T05:34:16.508Z,68.95392509604629
2022-10-28T05:37:16.485Z,69.46470667416985
2022-10-28T05:41:16.527Z,69.46049665156787
2022-10-28T05:44:17.050Z,69.59343710774104
2022-10-28T05:47:17.559Z,69.33704438800696
2022-10-28T05:51:16.078Z,69.61995049945726
2022-10-28T05:54:16.471Z,69.83080145969738
2022-10-28T05:57:16.873Z,70.0658787426233
2022-10-28T06:01:18.520Z,69.79371287757894
2022-10-28T06:04:17.852Z,70.17335260526673
2022-10-28T06:07:17.472Z,70.17207567190441
2022-10-28T06:11:14.786Z,70.09200709401013
2022-10-28T06:14:15.384Z,70.61232777483656
2022-10-28T06:17:15.449Z,70.62516773046966
2022-10-28T06:21:15.233Z,70.27921707853385
2022-10-28T06:24:14.989Z,70.5712512696596
2022-10-28T06:27:14.957Z,70.90875180415645
2022-10-28T06:31:14.569Z,70.99388189168862
2022-10-28T06:34:14.996Z,71.62152685472745
2022-10-28T06:37:14.653Z,71.91388582213472
2022-10-28T06:41:14.754Z,71.94483372470997
2022-10-28T06:44:15.276Z,72.54733989400214
2022-10-28T06:47:16.874Z,72.9539946024263
2022-10-28T06:51:17.167Z,72.64937687194086
2022-10-28T06:54:16.680Z,72.4947738344366
2022-10-28T06:57:17.016Z,72.97948585380584
2022-10-28T07:01:16.548Z,73.03627420597059
2022-10-28T07:04:16.715Z,73.23616129989412
2022-10-28T07:07:16.728Z,73.0887334130011
2022-10-28T07:11:16.692Z,73.41159020183503
2022-10-28T07:14:16.968Z,73.43120482916427
2022-10-28T07:17:16.844Z,73.59298420746177
2022-10-28T07:21:15.835Z,74.25344385755675
2022-10-28T07:24:15.962Z,74.48438542155232
2022-10-28T07:27:16.265Z,74.83335320642985
2022-10-28T07:31:15.833Z,75.37080318296616
2022-10-28T07:34:16.449Z,76.29770364333882
2022-10-28T07:37:16.102Z,76.68591719554439
2022-10-28T07:41:21.007Z,76.75442593153014
2022-10-28T07:44:20.669Z,77.29057259894338
2022-10-28T07:47:22.870Z,77.37324719375502
2022-10-28T07:51:16.199Z,76.79060836967338
2022-10-28T07:54:16.166Z,75.61293764711967
2022-10-28T07:57:16.969Z,75.08878135309612
2022-10-28T08:01:19.087Z,73.9358461472745
2022-10-28T08:04:16.238Z,73.71589480238957
2022-10-28T08:07:17.229Z,74.22208621966631
2022-10-28T08:11:17.669Z,74.28321726565775
2022-10-28T08:14:16.501Z,73.9416183389737
2022-10-28T08:17:16.450Z,73.28902796387538
2022-10-28T08:21:17.237Z,72.05811596811125
2022-10-28T08:24:17.085Z,72.21399254195794
2022-10-28T08:27:17.211Z,72.05271502934757
2022-10-28T08:31:35.825Z,70.91344653839623
2022-10-28T08:34:18.935Z,70.10571846797932
2022-10-28T08:37:19.033Z,70.3863881369742
2022-10-28T08:41:27.717Z,69.95206798600113
2022-10-28T08:44:41.099Z,69.12736914476527
2022-10-28T08:47:27.576Z,69.30061908849153
2022-10-28T08:51:22.741Z,68.19920755459239
2022-10-28T08:54:20.901Z,67.47066342903595
2022-10-28T08:57:24.622Z,66.71092037519789
2022-10-28T09:01:29.510Z,65.63673494368749
2022-10-28T09:04:26.647Z,63.11464423003166
2022-10-28T09:07:20.530Z,63.11108517510528
2022-10-28T09:11:35.936Z,60.746844705728144
2022-10-28T09:14:29.507Z,61.410716936197
2022-10-28T09:17:19.406Z,61.88261610983669
2022-10-28T09:21:46.974Z,61.75968249487603
2022-10-28T09:24:19.766Z,60.60072750605158
2022-10-28T09:27:28.390Z,58.851373861922575
2022-10-28T09:31:24.670Z,57.62366277235928
2022-10-28T09:34:28.329Z,56.79883357615579
2022-10-28T09:37:20.588Z,56.146879260377396
2022-10-28T09:41:22.161Z,56.54002595869866
2022-10-28T09:44:20.712Z,54.77094204942619
2022-10-28T09:47:21.265Z,56.468250060731854
2022-10-28T09:51:28.159Z,56.44955800618879
2022-10-28T09:54:16.551Z,57.49753075588361
2022-10-28T09:57:17.428Z,58.58125863400722
2022-10-28T10:01:17.934Z,59.30065641638487
2022-10-28T10:04:19.820Z,59.32704378396778
2022-10-28T10:07:26.866Z,58.959957706554654
2022-10-28T10:11:41.950Z,57.9914544566467
2022-10-28T10:14:25.907Z,56.568345461113125
2022-10-28T10:17:23.811Z,55.465417219526
2022-10-28T10:21:16.951Z,54.363492319107884
2022-10-28T10:24:22.114Z,55.074178507690505
2022-10-28T10:27:19.834Z,55.509282462285974
2022-10-28T10:31:19.097Z,54.91560600229585
2022-10-28T10:34:22.950Z,52.0013915435161
2022-10-28T10:37:19.910Z,51.48897109606724
2022-10-28T10:41:32.742Z,50.350950754359694
2022-10-28T10:44:30.727Z,50.348685069789035
2022-10-28T10:47:19.240Z,48.95864870876913
2022-10-28T10:51:25.341Z,49.65330761207416
2022-10-28T10:54:16.868Z,49.92473623273571
2022-10-28T10:57:20.059Z,48.80019887143626
2022-10-28T11:01:20.693Z,48.512533306238275
2022-10-28T11:04:21.027Z,49.224563419127556
2022-10-28T11:07:16.766Z,47.701912709030836
2022-10-28T11:11:20.592Z,46.18329479903244
2022-10-28T11:14:22.557Z,46.72129567551565
2022-10-28T11:17:24.282Z,45.252829630994654
2022-10-28T11:21:33.972Z,46.538304904649124
2022-10-28T11:24:33.544Z,45.20890447748375
2022-10-28T11:27:30.778Z,44.5443240296841
2022-10-28T11:31:33.413Z,44.81412698984549
2022-10-28T11:34:31.640Z,45.45761196518176
2022-10-28T11:37:29.264Z,44.646644912614036
2022-10-28T11:41:24.292Z,43.8873263748816
2022-10-28T11:44:31.345Z,44.484621168491614
2022-10-28T11:47:32.521Z,43.461218430115196
2022-10-28T11:51:29.219Z,42.51335338598982
2022-10-28T11:54:31.141Z,42.79483022171298
2022-10-28T11:57:23.108Z,42.94740294779795
2022-10-28T12:01:34.808Z,42.09227111600726
2022-10-28T12:04:30.374Z,43.21172298555303
2022-10-28T12:11:26.217Z,42.19816211818979
2022-10-28T12:14:22.689Z,42.614463297844495
2022-10-28T12:17:25.277Z,42.837407192903136
2022-10-28T12:21:25.944Z,42.02238103380316
2022-10-28T12:24:20.546Z,41.88753372914809
2022-10-28T12:27:21.343Z,39.64616392136389
2022-10-28T12:31:22.195Z,38.219590695662426
2022-10-28T12:34:25.147Z,38.53089886154984
2022-10-28T12:37:23.106Z,39.73983367850746
2022-10-28T12:41:20.393Z,41.27155536794793
2022-10-28T12:44:19.687Z,42.890888471650115
2022-10-28T12:47:21.114Z,43.01412313309808
2022-10-28T12:51:20.604Z,42.00501547765393
2022-10-28T12:54:24.596Z,42.14002175038277
2022-10-28T12:57:21.053Z,42.269180766438524
2022-10-28T13:01:20.650Z,40.4788609584362
2022-10-28T13:04:17.554Z,41.54141074603802
2022-10-28T13:07:38.158Z,42.00513494842526
2022-10-28T13:12:15.138Z,41.20094124826662
2022-10-28T13:14:33.652Z,40.965991536663225
2022-10-28T13:17:32.379Z,40.719452137930766
2022-10-28T13:21:27.477Z,40.83105399840638
2022-10-28T13:24:23.572Z,39.47448256848382
2022-10-28T13:27:19.323Z,39.550830924267146
2022-10-28T13:31:17.139Z,40.09134209643077
2022-10-28T13:34:45.968Z,40.913203491325774
2022-10-28T13:37:20.183Z,41.124620573386125
2022-10-28T13:41:34.670Z,39.198563125739
2022-10-28T13:44:47.132Z,40.43768310471371
2022-10-28T13:47:28.888Z,40.29099522095454
2022-10-28T13:51:50.323Z,40.05625735567644
2022-10-28T13:54:26.996Z,39.645435661197936
2022-10-28T13:57:24.870Z,40.02687906982599
2022-10-28T14:02:01.366Z,39.98625622230756
2022-10-28T14:04:24.658Z,40.54381175489736
2022-10-28T14:07:25.269Z,40.22692187764774
2022-10-28T14:11:23.618Z,40.50285128337355
2022-10-28T14:14:16.829Z,40.802185242949434
2022-10-28T14:17:21.060Z,40.109748902060055
2022-10-28T14:21:16.035Z,39.91643582578509
2022-10-28T14:24:32.655Z,39.364551248884524
2022-10-28T14:27:19.794Z,39.58780689121782
2022-10-28T14:31:40.215Z,39.606042012697905
2022-10-28T14:34:51.603Z,39.64128973768757
2022-10-28T14:41:34.038Z,38.44537249410078
2022-10-28T14:44:33.844Z,39.14366758352137
2022-10-28T14:47:38.995Z,39.11466460486781
2022-10-28T14:51:19.421Z,39.43763094581661
2022-10-28T14:54:28.777Z,39.625669858644166
2022-10-28T14:57:18.689Z,39.13363078067209
2022-10-28T15:01:22.519Z,39.55022942292027
2022-10-28T15:04:17.357Z,38.232466268302815
2022-10-28T15:07:19.437Z,38.56105923230672
2022-10-28T15:11:16.481Z,38.99517838939519
2022-10-28T15:14:25.616Z,38.93737801887095
2022-10-28T15:17:18.670Z,39.353452327005016
2022-10-28T15:21:18.569Z,39.88613561403522
2022-10-28T15:24:17.105Z,41.377377588844446
2022-10-28T15:27:17.441Z,42.353048042426096
2022-10-28T15:31:16.737Z,42.165589885085986
2022-10-28T15:34:20.291Z,42.27602342686957
2022-10-28T15:37:20.560Z,42.74248664856377
2022-10-28T15:41:39.825Z,42.85271524618168
2022-10-28T15:44:26.978Z,43.3298395945451
2022-10-28T15:47:24.151Z,44.38180853440219
2022-10-28T15:51:18.414Z,44.41618017607772
2022-10-28T15:54:19.622Z,45.37402785507044
2022-10-28T15:57:22.790Z,46.192095474884376
2022-10-28T16:01:28.961Z,46.673453194529024
2022-10-28T16:04:43.112Z,47.15331384909613
2022-10-28T16:07:17.342Z,47.74970390024064
2022-10-28T16:11:18.804Z,48.25233734831299
2022-10-28T16:14:31.735Z,48.68485025783556
2022-10-28T16:17:18.027Z,49.110939500571035
2022-10-28T16:21:18.684Z,49.905712033008975
2022-10-28T16:24:16.430Z,50.549087144030125
2022-10-28T16:27:19.500Z,50.62924241476729
2022-10-28T16:31:21.583Z,50.81197654619519
2022-10-28T16:34:19.608Z,51.25840491162498
2022-10-28T16:37:23.361Z,51.31438265098505
2022-10-28T16:41:17.901Z,51.70271924855567
2022-10-28T16:44:18.003Z,51.78313037470893
2022-10-28T16:47:20.479Z,51.97093151772383
2022-10-28T16:51:17.943Z,51.97991454041255
2022-10-28T16:54:17.158Z,52.10957530287877
2022-10-28T16:57:18.329Z,53.34231077306638
2022-10-28T17:01:19.883Z,53.928868217761206
2022-10-28T17:04:16.322Z,55.045538275453936
2022-10-28T17:07:17.963Z,55.1767773286638
2022-10-28T17:11:16.357Z,55.33782889670008
2022-10-28T17:14:17.197Z,56.30018187808885
2022-10-28T17:17:16.998Z,56.99377990677889
2022-10-28T17:21:16.651Z,56.827028066867584
2022-10-28T17:24:17.158Z,57.2210912470262
2022-10-28T17:27:16.716Z,57.56123306129219
2022-10-28T17:31:20.437Z,57.69002460709562
2022-10-28T17:34:17.490Z,57.84710991533291
2022-10-28T17:37:17.661Z,58.58146551753078
2022-10-28T17:41:16.482Z,58.44911329015301
2022-10-28T17:44:16.905Z,59.47275038106177
2022-10-28T17:47:16.732Z,60.3865045806761
2022-10-28T17:51:17.826Z,59.66846360346927
2022-10-28T17:54:17.186Z,59.85251037308479
2022-10-28T17:57:16.821Z,60.89014358968794
2022-10-28T18:01:17.802Z,60.80486047602114
2022-10-28T18:04:18.505Z,61.48350006932311
2022-10-28T18:07:18.059Z,61.128927804778904
2022-10-28T18:11:17.133Z,61.54497317531966
2022-10-28T18:14:16.535Z,61.795660041066384
2022-10-28T18:17:18.094Z,61.90189358653097
2022-10-28T18:21:17.715Z,62.561136453368725
2022-10-28T18:24:18.527Z,63.22410108731654
2022-10-28T18:27:17.043Z,63.135721432089866
2022-10-28T18:31:18.651Z,63.65441008985745
2022-10-28T18:34:17.658Z,63.78888649760656
2022-10-28T18:37:17.027Z,62.988909138109186
2022-10-28T18:41:17.897Z,63.30767120007074
2022-10-28T18:44:20.063Z,64.37396139656501
2022-10-28T18:47:17.542Z,64.4575345142284
2022-10-28T18:51:16.657Z,64.76860433724607
2022-10-28T18:54:17.217Z,65.51749977638596
2022-10-28T18:57:17.664Z,65.37113470449422
2022-10-28T19:01:17.812Z,65.9042393123093
2022-10-28T19:04:17.896Z,66.7034845876326
2022-10-28T19:07:15.928Z,66.76517717211729
2022-10-28T19:11:17.101Z,66.66268911518306
2022-10-28T19:14:16.668Z,67.32649393315309
2022-10-28T19:17:16.535Z,67.67494630966465
2022-10-28T19:21:17.239Z,67.03216975985384
2022-10-28T19:24:17.048Z,68.38535876154707
2022-10-28T19:27:18.488Z,68.10205554882162
2022-10-28T19:31:18.348Z,68.81053745099379
2022-10-28T19:34:16.737Z,69.15828110145391
2022-10-28T19:37:16.091Z,69.54240232138143
2022-10-28T19:41:19.248Z,69.98929652700575
2022-10-28T19:44:16.528Z,70.57272870951651
2022-10-28T19:47:16.596Z,70.65220422314478
2022-10-28T19:51:18.327Z,69.86045532115538
2022-10-28T19:54:16.101Z,70.10462694103059
2022-10-28T19:57:16.345Z,70.65366028371797
2022-10-28T20:01:19.038Z,70.71354050572398
2022-10-28T20:04:18.050Z,71.37211989578363
2022-10-28T20:07:16.446Z,71.62391555276484
2022-10-28T20:11:21.448Z,70.98407069082134
2022-10-28T20:14:16.732Z,71.6209812533059
2022-10-28T20:17:17.526Z,71.90475893509745
2022-10-28T20:21:18.534Z,72.38889876610945
2022-10-28T20:24:17.652Z,72.88212055134385
2022-10-28T20:27:17.315Z,73.52095012006431
2022-10-28T20:31:19.992Z,73.16857462443569
2022-10-28T20:34:16.259Z,73.63123230212098
2022-10-28T20:37:16.085Z,73.82249706008007
2022-10-28T20:41:16.936Z,73.5789648829851
2022-10-28T20:44:17.745Z,74.17577360902298
2022-10-28T20:47:17.898Z,73.80853247081865
2022-10-28T20:51:16.961Z,73.28587587831878
2022-10-28T20:54:17.345Z,73.439460591836
2022-10-28T20:57:17.226Z,73.72881973995088
2022-10-28T21:01:20.842Z,73.69352981031837
2022-10-28T21:04:17.195Z,73.88117105929555
2022-10-28T21:07:16.851Z,73.77040516824808
2022-10-28T21:11:17.357Z,73.0229326699366
2022-10-28T21:14:17.123Z,73.4695888804799
2022-10-28T21:17:17.022Z,74.16022688646417
2022-10-28T21:21:16.783Z,75.19414577440591
2022-10-28T21:24:17.007Z,75.72797801415021
2022-10-28T21:27:16.908Z,76.47723319407153
2022-10-28T21:31:18.477Z,76.06447039460724
2022-10-28T21:34:16.411Z,77.29334254489504
2022-10-28T21:37:16.906Z,77.8215694681796
2022-10-28T21:41:18.728Z,77.86993130586843
2022-10-28T21:44:17.498Z,78.5124468140423
2022-10-28T21:47:17.274Z,78.59582616639172
2022-10-28T21:51:18.253Z,77.9858292754812
2022-10-28T21:54:18.715Z,78.22739168105636
2022-10-28T21:57:16.866Z,78.12091318815048
2022-10-28T22:01:18.401Z,78.1385363973882
2022-10-28T22:04:16.611Z,78.17036228581505
2022-10-28T22:07:17.064Z,78.57076919139995
2022-10-28T22:11:18.533Z,77.62893047557006
2022-10-28T22:14:17.864Z,77.75496960556337
2022-10-28T22:17:17.459Z,77.98294802029687
2022-10-28T22:21:18.968Z,77.81314805613424
2022-10-28T22:24:16.775Z,78.47432474385607
2022-10-28T22:27:17.492Z,78.77491715951736
2022-10-28T22:31:19.785Z,79.24021763157886
2022-10-28T22:34:16.807Z,79.70327308230144
2022-10-28T22:37:16.991Z,79.65321383648549
2022-10-28T22:41:18.308Z,79.77923662734918
2022-10-28T22:44:16.839Z,80.93324512966028
2022-10-28T22:47:17.068Z,81.57171118017443
2022-10-28T22:51:17.319Z,81.26290881395627
2022-10-28T22:54:17.583Z,81.75993920560519
2022-10-28T22:57:17.046Z,81.91383762882539
2022-10-28T23:01:18.738Z,81.21976377488738
2022-10-28T23:04:16.966Z,81.16117465098448
2022-10-28T23:07:16.741Z,80.88166993940692
2022-10-28T23:11:18.335Z,81.08687069515648
2022-10-28T23:14:16.491Z,81.32111454136536
2022-10-28T23:17:16.071Z,81.4585556759146
2022-10-28T23:21:18.597Z,80.66028538873127
2022-10-28T23:24:17.211Z,79.82702432029033
2022-10-28T23:27:16.839Z,79.76609960896442
2022-10-28T23:31:16.031Z,79.83628604249104
2022-10-28T23:34:16.859Z,80.50077881013458
2022-10-28T23:37:16.703Z,80.77784342688113
2022-10-28T23:41:18.967Z,80.48214040647855
2022-10-28T23:44:17.519Z,80.80558740786302
2022-10-28T23:47:17.367Z,81.12804069464254
2022-10-28T23:51:16.887Z,80.38329641775734
2022-10-28T23:54:17.415Z,80.37022561458221
2022-10-28T23:57:17.649Z,80.29442900733525
